createdAt,value
2022-12-11T00:00:22.106Z,-0.80
2022-12-11T00:02:49.018Z,-1.00
2022-12-11T00:05:15.506Z,-1.00
2022-12-11T00:07:41.983Z,-0.90
2022-12-11T00:10:09.804Z,-0.90
2022-12-11T00:12:36.688Z,-1.00
2022-12-11T00:15:03.720Z,-0.90
2022-12-11T00:17:30.173Z,-0.90
2022-12-11T00:19:57.058Z,-1.00
2022-12-11T00:22:23.561Z,-0.90
2022-12-11T00:24:50.934Z,-0.90
2022-12-11T00:27:17.394Z,-0.80
2022-12-11T00:29:44.381Z,-0.80
2022-12-11T00:32:11.389Z,-0.90
2022-12-11T00:34:38.055Z,-0.90
2022-12-11T00:37:04.989Z,-0.90
2022-12-11T00:39:31.893Z,-0.90
2022-12-11T00:41:58.775Z,-0.90
2022-12-11T00:44:25.447Z,-0.80
2022-12-11T00:46:52.076Z,-0.90
2022-12-11T00:49:18.971Z,-0.90
2022-12-11T00:51:45.471Z,-1.00
2022-12-11T00:54:12.364Z,-1.10
2022-12-11T00:56:38.893Z,-1.00
2022-12-11T00:59:05.859Z,-1.10
2022-12-11T01:01:32.388Z,-1.10
2022-12-11T01:03:59.372Z,-1.20
2022-12-11T01:06:26.953Z,-1.10
2022-12-11T01:09:14.138Z,-1.10
2022-12-11T01:11:41.507Z,-1.10
2022-12-11T01:14:09.177Z,-1.20
2022-12-11T01:16:36.244Z,-1.10
2022-12-11T01:19:03.621Z,-1.20
2022-12-11T01:21:30.256Z,-1.20
2022-12-11T01:23:57.193Z,-1.20
2022-12-11T01:26:23.726Z,-1.20
2022-12-11T01:28:51.537Z,-1.10
2022-12-11T01:31:19.511Z,-1.10
2022-12-11T01:33:46.059Z,-1.10
2022-12-11T01:36:14.636Z,-1.10
2022-12-11T01:38:41.546Z,-1.10
2022-12-11T01:41:08.944Z,-1.10
2022-12-11T01:43:36.401Z,-1.10
2022-12-11T01:46:02.929Z,-1.10
2022-12-11T01:48:31.359Z,-1.00
2022-12-11T01:51:02.924Z,-1.10
2022-12-11T01:53:32.496Z,-1.20
2022-12-11T01:55:59.490Z,-1.20
2022-12-11T01:58:32.064Z,-1.20
2022-12-11T02:00:59.567Z,-1.20
2022-12-11T02:03:26.164Z,-1.20
2022-12-11T02:05:53.464Z,-1.10
2022-12-11T02:08:20.850Z,-1.20
2022-12-11T02:11:23.265Z,-1.20
2022-12-11T02:13:55.247Z,-1.20
2022-12-11T02:16:29.837Z,-1.20
2022-12-11T02:18:56.307Z,-1.20
2022-12-11T02:21:27.902Z,-1.20
2022-12-11T02:24:07.092Z,-1.20
2022-12-11T02:26:56.314Z,-1.20
2022-12-11T02:32:19.423Z,-1.10
2022-12-11T02:34:53.400Z,-1.20
2022-12-11T02:37:21.930Z,-1.10
2022-12-11T02:39:50.672Z,-1.10
2022-12-11T02:42:18.170Z,-1.10
2022-12-11T02:44:45.107Z,-1.10
2022-12-11T02:47:13.553Z,-1.10
2022-12-11T02:49:42.035Z,-1.10
2022-12-11T02:52:11.462Z,-1.20
2022-12-11T02:54:39.443Z,-1.30
2022-12-11T02:57:14.405Z,-1.30
2022-12-11T02:59:45.283Z,-1.40
2022-12-11T03:02:13.093Z,-1.40
2022-12-11T03:04:40.200Z,-1.40
2022-12-11T03:07:13.253Z,-1.40
2022-12-11T03:09:40.652Z,-1.40
2022-12-11T03:12:10.756Z,-1.40
2022-12-11T03:14:38.531Z,-1.40
2022-12-11T03:17:07.838Z,-1.40
2022-12-11T03:19:41.750Z,-1.30
2022-12-11T03:22:10.309Z,-1.30
2022-12-11T03:24:45.885Z,-1.30
2022-12-11T03:27:32.626Z,-1.20
2022-12-11T03:30:02.597Z,-1.20
2022-12-11T03:32:31.331Z,-1.20
2022-12-11T03:35:05.604Z,-1.20
2022-12-11T03:37:34.434Z,-1.30
2022-12-11T03:40:04.455Z,-1.30
2022-12-11T03:42:31.589Z,-1.30
2022-12-11T03:44:58.786Z,-1.20
2022-12-11T03:47:27.286Z,-1.30
2022-12-11T03:49:54.791Z,-1.30
2022-12-11T03:52:21.738Z,-1.40
2022-12-11T03:54:49.483Z,-1.50
2022-12-11T03:57:20.437Z,-1.60
2022-12-11T03:59:47.853Z,-1.70
2022-12-11T04:02:14.734Z,-1.80
2022-12-11T04:04:41.530Z,-1.80
2022-12-11T04:07:08.388Z,-1.90
2022-12-11T04:09:35.504Z,-2.00
2022-12-11T04:12:02.393Z,-2.10
2022-12-11T04:14:47.494Z,-2.20
2022-12-11T04:17:34.368Z,-2.30
2022-12-11T04:20:19.833Z,-2.40
2022-12-11T04:23:05.264Z,-2.50
2022-12-11T04:25:32.191Z,-2.50
2022-12-11T04:27:58.670Z,-2.70
2022-12-11T04:30:30.762Z,-2.70
2022-12-11T04:33:00.770Z,-2.80
2022-12-11T04:35:27.982Z,-2.90
2022-12-11T04:37:54.447Z,-3.00
2022-12-11T04:40:21.738Z,-3.10
2022-12-11T04:42:48.750Z,-3.10
2022-12-11T04:45:15.668Z,-3.20
2022-12-11T04:47:42.145Z,-3.30
2022-12-11T04:50:10.111Z,-3.30
2022-12-11T04:52:37.017Z,-3.40
2022-12-11T04:55:06.173Z,-3.50
2022-12-11T04:57:33.334Z,-3.50
2022-12-11T04:59:59.944Z,-3.50
2022-12-11T05:02:26.566Z,-3.50
2022-12-11T05:04:53.485Z,-3.60
2022-12-11T05:07:20.369Z,-3.60
2022-12-11T05:09:46.857Z,-3.60
2022-12-11T05:12:13.754Z,-3.60
2022-12-11T05:14:40.494Z,-3.60
2022-12-11T05:17:07.459Z,-3.60
2022-12-11T05:19:33.937Z,-3.60
2022-12-11T05:22:00.873Z,-3.70
2022-12-11T05:24:27.339Z,-3.70
2022-12-11T05:26:53.813Z,-3.70
2022-12-11T05:29:20.703Z,-3.80
2022-12-11T05:31:47.202Z,-3.90
2022-12-11T05:34:15.509Z,-3.90
2022-12-11T05:36:42.575Z,-3.90
2022-12-11T05:39:11.282Z,-4.00
2022-12-11T05:41:38.235Z,-4.00
2022-12-11T05:44:05.193Z,-4.10
2022-12-11T05:46:31.746Z,-4.10
2022-12-11T05:49:00.452Z,-4.10
2022-12-11T05:51:27.624Z,-4.10
2022-12-11T05:53:57.941Z,-4.20
2022-12-11T05:56:26.283Z,-4.20
2022-12-11T05:58:53.343Z,-4.30
2022-12-11T06:01:21.918Z,-4.40
2022-12-11T06:03:49.111Z,-4.40
2022-12-11T06:06:15.927Z,-4.40
2022-12-11T06:08:42.850Z,-4.50
2022-12-11T06:11:09.766Z,-4.50
2022-12-11T06:13:36.754Z,-4.50
2022-12-11T06:16:04.146Z,-4.40
2022-12-11T06:18:31.453Z,-4.40
2022-12-11T06:20:58.174Z,-4.40
2022-12-11T06:23:25.099Z,-4.40
2022-12-11T06:25:51.610Z,-4.40
2022-12-11T06:28:18.606Z,-4.40
2022-12-11T06:30:45.535Z,-4.40
2022-12-11T06:33:12.003Z,-4.40
2022-12-11T06:35:41.960Z,-4.40
2022-12-11T06:38:09.289Z,-4.40
2022-12-11T06:40:35.832Z,-4.30
2022-12-11T06:43:02.702Z,-4.30
2022-12-11T06:45:29.231Z,-4.20
2022-12-11T06:47:56.610Z,-4.10
2022-12-11T06:50:23.113Z,-4.00
2022-12-11T06:52:49.984Z,-4.00
2022-12-11T06:55:16.977Z,-4.00
2022-12-11T06:57:43.514Z,-4.00
2022-12-11T07:00:10.312Z,-4.00
2022-12-11T07:02:37.303Z,-4.10
2022-12-11T07:05:04.475Z,-4.20
2022-12-11T07:07:30.942Z,-4.20
2022-12-11T07:10:00.380Z,-4.20
2022-12-11T07:12:31.065Z,-4.30
2022-12-11T07:14:57.645Z,-4.30
2022-12-11T07:17:24.601Z,-4.30
2022-12-11T07:19:51.484Z,-4.40
2022-12-11T07:22:17.941Z,-4.40
2022-12-11T07:24:44.812Z,-4.40
2022-12-11T07:27:11.462Z,-4.40
2022-12-11T07:29:37.943Z,-4.40
2022-12-11T07:32:05.093Z,-4.40
2022-12-11T07:34:32.059Z,-4.50
2022-12-11T07:36:58.553Z,-4.50
2022-12-11T07:39:25.430Z,-4.50
2022-12-11T07:41:52.371Z,-4.60
2022-12-11T07:44:19.461Z,-4.60
2022-12-11T07:46:46.025Z,-4.70
2022-12-11T07:49:12.502Z,-4.60
2022-12-11T07:51:39.451Z,-4.60
2022-12-11T07:54:07.609Z,-4.60
2022-12-11T07:56:34.930Z,-4.60
2022-12-11T07:59:02.300Z,-4.60
2022-12-11T08:01:30.478Z,-4.50
2022-12-11T08:03:57.038Z,-4.50
2022-12-11T08:06:28.381Z,-4.50
2022-12-11T08:08:58.825Z,-4.50
2022-12-11T08:11:26.213Z,-4.40
2022-12-11T08:13:53.205Z,-4.40
2022-12-11T08:16:19.774Z,-4.30
2022-12-11T08:18:47.374Z,-4.30
2022-12-11T08:21:13.849Z,-4.30
2022-12-11T08:23:40.976Z,-4.20
2022-12-11T08:26:08.484Z,-4.20
2022-12-11T08:28:35.538Z,-4.20
2022-12-11T08:31:04.864Z,-4.10
2022-12-11T08:33:31.651Z,-4.10
2022-12-11T08:35:58.925Z,-4.00
2022-12-11T08:38:25.886Z,-4.00
2022-12-11T08:40:52.790Z,-4.00
2022-12-11T08:43:19.317Z,-3.80
2022-12-11T08:45:46.642Z,-3.60
2022-12-11T08:48:13.649Z,-3.50
2022-12-11T08:50:40.126Z,-3.30
2022-12-11T08:53:06.654Z,-3.10
2022-12-11T08:55:34.003Z,-3.00
2022-12-11T08:58:00.476Z,-2.90
2022-12-11T09:00:26.937Z,-2.70
2022-12-11T09:02:53.922Z,-2.70
2022-12-11T09:05:20.397Z,-2.70
2022-12-11T09:07:47.712Z,-2.70
2022-12-11T09:10:14.231Z,-2.60
2022-12-11T09:12:40.812Z,-2.60
2022-12-11T09:15:08.158Z,-2.60
2022-12-11T09:17:35.291Z,-2.50
2022-12-11T09:20:02.359Z,-2.50
2022-12-11T09:22:29.792Z,-2.40
2022-12-11T09:24:56.727Z,-2.20
2022-12-11T09:27:23.670Z,-2.20
2022-12-11T09:29:50.666Z,-2.10
2022-12-11T09:32:17.216Z,-2.00
2022-12-11T09:34:44.170Z,-1.80
2022-12-11T09:37:11.057Z,-1.70
2022-12-11T09:39:37.947Z,-1.70
2022-12-11T09:42:23.231Z,-1.60
2022-12-11T09:44:55.040Z,-1.70
2022-12-11T09:47:39.002Z,-1.60
2022-12-11T09:50:11.793Z,-1.60
2022-12-11T09:52:53.419Z,-1.60
2022-12-11T09:55:24.453Z,-1.60
2022-12-11T09:57:59.291Z,-1.50
2022-12-11T10:00:29.262Z,-1.60
2022-12-11T10:03:26.722Z,-1.50
2022-12-11T10:06:04.803Z,-1.50
2022-12-11T10:08:44.236Z,-1.30
2022-12-11T10:11:13.689Z,-1.20
2022-12-11T10:13:59.005Z,-1.10
2022-12-11T10:16:44.826Z,-1.00
2022-12-11T10:19:17.109Z,-1.00
2022-12-11T10:21:43.924Z,-1.00
2022-12-11T10:24:24.368Z,-1.00
2022-12-11T10:27:10.055Z,-1.00
2022-12-11T10:29:36.954Z,-1.00
2022-12-11T10:32:05.233Z,-1.00
2022-12-11T10:34:37.856Z,-1.00
2022-12-11T10:37:04.904Z,-1.00
2022-12-11T10:39:31.437Z,-0.90
2022-12-11T10:41:58.296Z,-0.70
2022-12-11T10:44:26.600Z,-0.70
2022-12-11T10:47:09.292Z,-0.70
2022-12-11T10:49:37.138Z,-0.70
2022-12-11T10:52:20.060Z,-0.70
2022-12-11T10:54:49.044Z,-0.70
2022-12-11T10:57:15.738Z,-0.80
2022-12-11T10:59:45.695Z,-0.80
2022-12-11T11:02:32.466Z,-0.80
2022-12-11T11:05:00.447Z,-0.80
2022-12-11T11:07:28.657Z,-0.70
2022-12-11T11:10:06.611Z,-0.70
2022-12-11T11:12:37.053Z,-0.60
2022-12-11T11:15:05.489Z,-0.60
2022-12-11T11:17:35.087Z,-0.60
2022-12-11T11:20:06.054Z,-0.50
2022-12-11T11:22:33.040Z,-0.60
2022-12-11T11:24:59.601Z,-0.50
2022-12-11T11:27:31.358Z,-0.40
2022-12-11T11:29:59.904Z,-0.40
2022-12-11T11:32:31.350Z,-0.40
2022-12-11T11:35:10.251Z,-0.40
2022-12-11T11:37:37.572Z,-0.40
2022-12-11T11:40:10.436Z,-0.40
2022-12-11T11:42:46.076Z,-0.40
2022-12-11T11:45:16.680Z,-0.40
2022-12-11T11:47:48.622Z,-0.40
2022-12-11T11:50:18.425Z,0.50
2022-12-11T11:53:05.776Z,-0.50
2022-12-11T11:55:42.926Z,-0.50
2022-12-11T11:58:15.285Z,-0.50
2022-12-11T12:00:41.906Z,-0.60
2022-12-11T12:03:14.734Z,-0.50
2022-12-11T12:05:53.987Z,-0.60
2022-12-11T12:08:33.749Z,-0.60
2022-12-11T12:11:04.862Z,-0.70
2022-12-11T12:13:49.394Z,-0.70
2022-12-11T12:16:50.982Z,-0.80
2022-12-11T12:19:14.386Z,-0.80
2022-12-11T12:21:45.151Z,-0.60
2022-12-11T12:24:18.993Z,-0.50
2022-12-11T12:26:52.091Z,-0.40
2022-12-11T12:29:34.003Z,-0.40
2022-12-11T12:32:04.425Z,-0.30
2022-12-11T12:34:30.864Z,-0.30
2022-12-11T12:37:33.290Z,-0.30
2022-12-11T12:40:08.907Z,-0.20
2022-12-11T12:42:38.629Z,-0.10
2022-12-11T12:45:14.558Z,-0.10
2022-12-11T12:47:43.493Z,-0.10
2022-12-11T12:50:21.331Z,0.00
2022-12-11T12:52:49.266Z,0.00
2022-12-11T12:55:24.791Z,0.10
2022-12-11T12:57:53.834Z,0.10
2022-12-11T13:00:37.987Z,0.10
2022-12-11T13:03:21.807Z,0.00
2022-12-11T13:05:56.463Z,-0.10
2022-12-11T13:08:28.568Z,-0.10
2022-12-11T13:11:08.926Z,-0.20
2022-12-11T13:13:37.656Z,-0.20
2022-12-11T13:16:16.368Z,-0.30
2022-12-11T13:18:44.292Z,-0.30
2022-12-11T13:21:29.646Z,-0.40
2022-12-11T13:24:12.772Z,-0.50
2022-12-11T13:26:39.368Z,-0.50
2022-12-11T13:29:06.656Z,-0.50
2022-12-11T13:31:35.552Z,-0.60
2022-12-11T13:34:21.176Z,-0.60
2022-12-11T13:36:52.561Z,-0.60
2022-12-11T13:39:29.970Z,-0.60
2022-12-11T13:42:01.222Z,-0.70
2022-12-11T13:44:29.345Z,-0.60
2022-12-11T13:46:57.243Z,-0.60
2022-12-11T13:49:26.112Z,-0.60
2022-12-11T13:51:58.113Z,-0.50
2022-12-11T13:54:25.134Z,-0.50
2022-12-11T13:57:03.671Z,-0.50
2022-12-11T13:59:30.193Z,-0.50
2022-12-11T14:01:59.003Z,-0.60
2022-12-11T14:04:28.827Z,-0.60
2022-12-11T14:06:55.935Z,-0.50
2022-12-11T14:09:24.309Z,-0.70
2022-12-11T14:11:56.589Z,-0.60
2022-12-11T14:14:27.811Z,-0.70
2022-12-11T14:16:54.436Z,-0.70
2022-12-11T14:19:22.166Z,-0.70
2022-12-11T14:21:56.113Z,-0.70
2022-12-11T14:24:22.630Z,-0.70
2022-12-11T14:26:53.866Z,-0.60
2022-12-11T14:29:24.598Z,-0.60
2022-12-11T14:31:51.637Z,-0.60
2022-12-11T14:34:26.178Z,-0.60
2022-12-11T14:36:53.675Z,-0.70
2022-12-11T14:39:27.290Z,-0.80
2022-12-11T14:41:59.637Z,-0.80
2022-12-11T14:44:28.489Z,-0.70
2022-12-11T14:46:58.914Z,-0.70
2022-12-11T14:49:44.797Z,-0.70
2022-12-11T14:52:23.834Z,-0.80
2022-12-11T14:54:53.015Z,-0.80
2022-12-11T14:57:25.255Z,-0.80
2022-12-11T14:59:52.527Z,-0.80
2022-12-11T15:02:30.619Z,-0.80
2022-12-11T15:04:59.647Z,-0.80
2022-12-11T15:07:26.845Z,-0.50
2022-12-11T15:09:53.370Z,-0.40
2022-12-11T15:12:20.533Z,-0.50
2022-12-11T15:14:50.416Z,-0.70
2022-12-11T15:17:17.287Z,-0.70
2022-12-11T15:19:47.405Z,-0.80
2022-12-11T15:22:15.485Z,-0.80
2022-12-11T15:24:43.267Z,-0.80
2022-12-11T15:27:21.230Z,-0.80
2022-12-11T15:29:47.709Z,-0.90
2022-12-11T15:32:14.653Z,-0.80
2022-12-11T15:34:45.614Z,-0.60
2022-12-11T15:37:18.577Z,-0.80
2022-12-11T15:39:45.069Z,-0.80
2022-12-11T15:42:14.807Z,-0.80
2022-12-11T15:44:41.918Z,-0.80
2022-12-11T15:47:12.450Z,-0.80
2022-12-11T15:49:39.862Z,-0.70
2022-12-11T15:52:06.762Z,-0.80
2022-12-11T15:54:33.331Z,-0.80
2022-12-11T15:57:01.740Z,-0.80
2022-12-11T15:59:28.628Z,-0.70
2022-12-11T16:01:55.128Z,-0.80
2022-12-11T16:04:22.045Z,-0.80
2022-12-11T16:06:48.517Z,-0.70
2022-12-11T16:09:15.415Z,-0.70
2022-12-11T16:11:42.017Z,-0.70
2022-12-11T16:14:08.491Z,-0.60
2022-12-11T16:16:35.499Z,-0.70
2022-12-11T16:19:02.407Z,-0.70
2022-12-11T16:21:29.037Z,-0.70
2022-12-11T16:23:55.528Z,-0.60
2022-12-11T16:26:22.422Z,-0.70
2022-12-11T16:28:48.898Z,-0.60
2022-12-11T16:31:15.839Z,-0.70
2022-12-11T16:33:42.890Z,-0.60
2022-12-11T16:36:16.736Z,-0.60
2022-12-11T16:38:53.242Z,-0.60
2022-12-11T16:41:21.033Z,-0.60
2022-12-11T16:43:47.933Z,-0.60
2022-12-11T16:46:18.744Z,-0.60
2022-12-11T16:48:45.835Z,-0.80
2022-12-11T16:51:12.727Z,-0.80
2022-12-11T16:53:39.201Z,-0.90
2022-12-11T16:56:06.724Z,-0.90
2022-12-11T16:58:33.383Z,-0.90
2022-12-11T17:01:03.436Z,-0.80
2022-12-11T17:03:30.526Z,-0.80
2022-12-11T17:05:58.030Z,-0.80
2022-12-11T17:08:24.953Z,-0.80
2022-12-11T17:10:52.434Z,-0.80
2022-12-11T17:13:18.921Z,-0.70
2022-12-11T17:15:45.730Z,-0.90
2022-12-11T17:18:12.688Z,-0.90
2022-12-11T17:20:40.583Z,-0.80
2022-12-11T17:23:07.657Z,-0.80
2022-12-11T17:25:34.128Z,-0.80
2022-12-11T17:28:00.597Z,-0.80
2022-12-11T17:30:27.503Z,-0.80
2022-12-11T17:32:54.424Z,-0.80
2022-12-11T17:35:21.317Z,-0.70
2022-12-11T17:37:48.252Z,-0.80
2022-12-11T17:40:14.759Z,-0.80
2022-12-11T17:42:44.301Z,-0.80
2022-12-11T17:45:12.115Z,-0.80
2022-12-11T17:47:38.791Z,-0.80
2022-12-11T17:50:05.469Z,-0.80
2022-12-11T17:52:35.631Z,-0.80
2022-12-11T17:55:04.979Z,-0.80
2022-12-11T17:57:31.542Z,-0.80
2022-12-11T17:59:58.896Z,-0.80
2022-12-11T18:02:25.580Z,-0.80
2022-12-11T18:04:52.568Z,-0.70
2022-12-11T18:07:19.496Z,-0.30
2022-12-11T18:09:46.015Z,-0.70
2022-12-11T18:12:12.484Z,-0.70
2022-12-11T18:14:39.526Z,-0.80
2022-12-11T18:17:06.515Z,-0.80
2022-12-11T18:19:33.053Z,-0.80
2022-12-11T18:21:59.527Z,-0.80
2022-12-11T18:24:31.984Z,-0.80
2022-12-11T18:26:59.044Z,-0.90
2022-12-11T18:29:25.602Z,-0.90
2022-12-11T18:31:52.968Z,-0.80
2022-12-11T18:34:19.468Z,-0.80
2022-12-11T18:36:46.006Z,-0.90
2022-12-11T18:39:12.894Z,-0.80
2022-12-11T18:41:39.852Z,-0.80
2022-12-11T18:44:10.011Z,-0.80
2022-12-11T18:46:37.179Z,-0.80
2022-12-11T18:49:03.655Z,-0.70
2022-12-11T18:51:30.961Z,-0.80
2022-12-11T18:53:57.923Z,-0.70
2022-12-11T18:56:24.931Z,-0.70
2022-12-11T18:58:51.654Z,-0.70
2022-12-11T19:01:18.958Z,-0.70
2022-12-11T19:03:47.416Z,-0.70
2022-12-11T19:06:18.111Z,-0.60
2022-12-11T19:08:45.457Z,-0.70
2022-12-11T19:11:16.699Z,-0.60
2022-12-11T19:13:44.371Z,-0.60
2022-12-11T19:16:37.605Z,-0.50
2022-12-11T19:19:07.409Z,-0.60
2022-12-11T19:21:35.342Z,-0.50
2022-12-11T19:24:02.256Z,-0.50
2022-12-11T19:26:28.790Z,-0.50
2022-12-11T19:29:00.273Z,-0.60
2022-12-11T19:31:28.814Z,-0.60
2022-12-11T19:33:55.536Z,-0.60
2022-12-11T19:36:24.328Z,-0.60
2022-12-11T19:38:51.729Z,-0.60
2022-12-11T19:41:22.700Z,-0.70
2022-12-11T19:43:50.272Z,-0.70
2022-12-11T19:46:17.328Z,-0.70
2022-12-11T19:48:44.647Z,-0.60
2022-12-11T19:51:12.901Z,-0.70
2022-12-11T19:53:39.624Z,-0.60
2022-12-11T19:56:07.086Z,-0.70
2022-12-11T19:58:33.797Z,-0.70
2022-12-11T20:01:02.156Z,-0.70
2022-12-11T20:03:28.731Z,-0.70
2022-12-11T20:06:02.459Z,-0.70
2022-12-11T20:08:44.237Z,-0.70
2022-12-11T20:11:17.548Z,-0.80
2022-12-11T20:13:48.486Z,-0.80
2022-12-11T20:16:15.812Z,-0.80
2022-12-11T20:18:42.386Z,-0.80
2022-12-11T20:21:11.537Z,-0.80
2022-12-11T20:23:38.558Z,-0.80
2022-12-11T20:26:08.408Z,-0.90
2022-12-11T20:28:34.941Z,-1.00
2022-12-11T20:31:06.043Z,-1.00
2022-12-11T20:33:32.972Z,-1.10
2022-12-11T20:35:59.460Z,-1.20
2022-12-11T20:38:28.771Z,-1.30
2022-12-11T20:41:00.959Z,-1.30
2022-12-11T20:43:27.432Z,-1.40
2022-12-11T20:45:53.939Z,-1.50
2022-12-11T20:48:20.961Z,-1.60
2022-12-11T20:50:47.418Z,-1.70
2022-12-11T20:53:14.334Z,-1.70
2022-12-11T20:55:41.297Z,-1.80
2022-12-11T20:58:08.801Z,-1.90
2022-12-11T21:00:36.458Z,-1.80
2022-12-11T21:03:03.403Z,-2.00
2022-12-11T21:05:30.297Z,-2.00
2022-12-11T21:07:56.917Z,-2.00
2022-12-11T21:10:23.445Z,-2.10
2022-12-11T21:12:50.377Z,-2.10
2022-12-11T21:15:17.341Z,-2.10
2022-12-11T21:17:43.852Z,-2.10
2022-12-11T21:20:10.538Z,-2.10
2022-12-11T21:22:37.465Z,-2.10
2022-12-11T21:25:04.066Z,-2.00
2022-12-11T21:27:30.571Z,-2.00
2022-12-11T21:29:57.625Z,-1.90
2022-12-11T21:32:25.041Z,-1.90
2022-12-11T21:34:51.949Z,-1.80
2022-12-11T21:37:18.422Z,-1.90
2022-12-11T21:39:45.322Z,-1.80
2022-12-11T21:42:12.371Z,-1.80
2022-12-11T21:47:27.934Z,-1.70
2022-12-11T21:49:54.402Z,-1.70
2022-12-11T21:52:21.272Z,-1.70
2022-12-11T21:54:49.131Z,-1.60
2022-12-11T21:57:18.971Z,-1.60
2022-12-11T21:59:47.792Z,-1.60
2022-12-11T22:02:16.542Z,-1.60
2022-12-11T22:04:43.072Z,-1.60
2022-12-11T22:07:09.965Z,-1.60
2022-12-11T22:09:36.440Z,-1.60
2022-12-11T22:12:03.441Z,-1.50
2022-12-11T22:14:31.209Z,-1.20
2022-12-11T22:16:58.214Z,-1.40
2022-12-11T22:19:29.170Z,-1.40
2022-12-11T22:21:58.893Z,-1.40
2022-12-11T22:24:25.805Z,-1.40
2022-12-11T22:26:52.722Z,-1.30
2022-12-11T22:29:19.183Z,-1.30
2022-12-11T22:31:45.681Z,-1.30
2022-12-11T22:34:12.589Z,-1.30
2022-12-11T22:36:39.071Z,-1.30
2022-12-11T22:39:05.558Z,-1.30
2022-12-11T22:41:32.906Z,-1.30
2022-12-11T22:43:59.535Z,-1.30
2022-12-11T22:46:28.075Z,-1.30
2022-12-11T22:48:54.869Z,-1.20
2022-12-11T22:51:21.914Z,-1.10
2022-12-11T22:53:48.448Z,-1.10
2022-12-11T22:56:15.110Z,-1.10
2022-12-11T22:58:42.290Z,-1.00
2022-12-11T23:01:10.612Z,-1.10
2022-12-11T23:03:37.243Z,-0.90
2022-12-11T23:06:12.001Z,-0.90
2022-12-11T23:08:39.637Z,0.50
2022-12-11T23:11:13.624Z,-0.80
2022-12-11T23:13:41.006Z,-0.70
2022-12-11T23:16:07.493Z,-0.70
2022-12-11T23:18:33.983Z,-0.70
2022-12-11T23:21:01.055Z,-0.70
2022-12-11T23:23:28.426Z,-0.70
2022-12-11T23:25:56.564Z,-0.70
2022-12-11T23:28:23.541Z,-0.70
2022-12-11T23:30:50.069Z,-0.70
2022-12-11T23:33:17.069Z,-0.70
2022-12-11T23:35:44.002Z,-0.70
2022-12-11T23:38:10.517Z,-0.60
2022-12-11T23:40:37.467Z,-0.60
2022-12-11T23:43:03.952Z,-0.60
2022-12-11T23:45:30.481Z,-0.60
2022-12-11T23:47:57.434Z,-0.60
2022-12-11T23:50:23.929Z,-0.50
2022-12-11T23:52:50.842Z,-0.60
2022-12-11T23:55:17.754Z,-0.60
2022-12-11T23:57:44.225Z,-0.60
